createdAt,value
2022-07-30T12:15:53.612Z,99.90
2022-07-30T12:18:25.344Z,99.90
2022-07-30T12:20:30.388Z,99.90
2022-07-30T12:22:34.476Z,99.90
2022-07-30T12:24:38.011Z,99.90
2022-07-30T12:28:47.115Z,99.90
2022-07-30T12:30:51.190Z,99.90
2022-07-30T12:32:54.790Z,99.90
2022-07-30T12:34:59.993Z,99.90
2022-07-30T12:37:10.649Z,99.90
2022-07-30T12:39:20.586Z,99.90
2022-07-30T12:41:23.993Z,99.90
2022-07-30T12:43:50.787Z,99.90
2022-07-30T12:50:21.902Z,99.90
2022-07-30T13:00:07.558Z,99.90
2022-07-30T13:02:33.535Z,99.90
2022-07-30T13:05:10.993Z,99.90
2022-07-30T13:07:36.903Z,99.90
2022-07-30T13:10:10.676Z,99.90
2022-07-30T13:12:32.890Z,99.90
2022-07-30T13:51:53.083Z,94.50
2022-07-30T13:53:57.725Z,92.80
2022-07-30T13:56:01.403Z,97.40
2022-07-30T13:58:06.215Z,92.40
2022-07-30T14:00:12.632Z,90.60
2022-07-30T14:02:16.757Z,94.90
2022-07-30T14:04:20.042Z,94.80
2022-07-30T14:06:25.315Z,94.50
2022-07-30T14:08:31.461Z,89.60
2022-07-30T14:10:36.176Z,93.20
2022-07-30T14:12:40.335Z,91.00
2022-07-30T14:14:43.796Z,94.00
2022-07-30T14:19:00.209Z,91.60
2022-07-30T14:21:03.787Z,89.10
2022-07-30T14:23:09.211Z,91.80
2022-07-30T14:25:13.227Z,88.80
2022-07-30T14:27:20.649Z,88.70
2022-07-30T14:29:26.045Z,86.60
2022-07-30T14:31:29.753Z,84.30
2022-07-30T14:33:33.964Z,87.20
2022-07-30T14:35:40.312Z,90.70
2022-07-30T14:37:43.669Z,82.30
2022-07-30T14:39:48.617Z,83.00
2022-07-30T14:41:53.178Z,81.40
2022-07-30T14:43:59.291Z,80.10
2022-07-30T14:46:02.550Z,73.00
2022-07-30T14:48:06.421Z,76.20
2022-07-30T14:50:10.684Z,76.60
2022-07-30T14:54:17.896Z,77.50
2022-07-30T14:56:23.983Z,81.40
2022-07-30T14:58:27.585Z,80.80
2022-07-30T15:00:35.582Z,81.40
2022-07-30T15:02:52.340Z,78.90
2022-07-30T15:04:56.396Z,80.50
2022-07-30T15:06:59.876Z,76.50
2022-07-30T15:09:04.818Z,72.90
2022-07-30T15:11:09.607Z,71.00
2022-07-30T15:13:15.351Z,76.70
2022-07-30T15:15:19.340Z,73.70
2022-07-30T15:17:26.493Z,71.90
2022-07-30T15:19:29.773Z,69.50
2022-07-30T15:21:33.192Z,76.60
2022-07-30T15:23:37.002Z,79.20
2022-07-30T15:25:40.245Z,75.10
2022-07-30T15:27:43.545Z,73.40
2022-07-30T15:29:49.673Z,72.90
2022-07-30T15:31:53.369Z,72.00
2022-07-30T15:36:00.617Z,71.60
2022-07-30T15:38:03.797Z,76.90
2022-07-30T15:40:08.383Z,68.10
2022-07-30T15:44:15.903Z,73.20
2022-07-30T15:46:31.797Z,73.20
2022-07-30T15:48:35.854Z,69.40
2022-07-30T15:50:39.185Z,71.40
2022-07-30T15:52:42.494Z,74.30
2022-07-30T15:54:46.059Z,71.40
2022-07-30T15:56:49.706Z,65.00
2022-07-30T15:58:53.124Z,63.80
2022-07-30T16:03:05.250Z,67.70
2022-07-30T16:05:13.627Z,67.40
2022-07-30T16:07:34.818Z,64.50
2022-07-30T16:09:40.678Z,66.30
2022-07-30T16:53:02.012Z,86.30
2022-07-30T16:55:06.208Z,90.40
2022-07-30T16:57:10.491Z,88.30
2022-07-30T16:59:17.200Z,84.60
2022-07-30T17:03:25.297Z,89.10
2022-07-30T17:05:29.331Z,89.90
2022-07-30T17:11:47.177Z,79.60
2022-07-30T17:13:51.669Z,80.10
2022-07-30T17:15:55.060Z,84.00
2022-07-30T17:22:08.484Z,79.50
2022-07-30T17:24:13.576Z,85.00
2022-07-30T17:26:19.033Z,80.90
2022-07-30T17:28:26.906Z,81.60
2022-07-30T17:30:31.592Z,84.60
2022-07-30T17:32:34.965Z,84.00
2022-07-30T17:40:59.638Z,81.50
2022-07-30T17:43:04.825Z,83.10
2022-07-30T17:45:09.952Z,80.90
2022-07-30T18:01:43.744Z,80.20
2022-07-30T18:03:47.353Z,79.70
2022-07-30T18:05:51.518Z,81.10
2022-07-30T18:07:54.747Z,80.60
2022-07-30T18:12:02.114Z,84.00
